Time;durP1;ratioP1;P1;durP2;ratioP2;P2;SDS_P1;SDS_P2;PMS_P1;PMS_P2;Temp;Humidity;BMP_temperature;BMP_pressure;BME280_temperature;BME280_humidity;BME280_pressure;Samples;Min_cycle;Max_cycle;Signal;HPM_P1;HPM_P2
2023/04/16 00:01:00;;;;;;;8.23;7.43;;;;;;;12.13;63.62;97338.66;5041115;28;20188;-70
2023/04/16 00:03:26;;;;;;;8.20;7.43;;;;;;;12.13;63.23;97333.41;5033706;28;20198;-71
2023/04/16 00:05:54;;;;;;;7.93;7.13;;;;;;;12.12;63.68;97342.28;5040351;28;20191;-70
2023/04/16 00:08:23;;;;;;;8.10;7.30;;;;;;;12.12;63.79;97342.28;5026802;28;20241;-70
2023/04/16 00:10:48;;;;;;;8.40;7.50;;;;;;;12.13;63.72;97343.91;5048208;28;20918;-71
2023/04/16 00:13:14;;;;;;;8.50;7.20;;;;;;;12.13;63.38;97345.75;5032985;28;20434;-72
2023/04/16 00:15:39;;;;;;;8.60;7.80;;;;;;;12.11;63.45;97347.69;5033572;28;20194;-70
2023/04/16 00:18:05;;;;;;;7.53;6.80;;;;;;;12.14;63.41;97345.56;5041348;28;20262;-72
2023/04/16 00:20:30;;;;;;;8.03;7.20;;;;;;;12.16;63.42;97341.97;5044698;28;20183;-71
2023/04/16 00:22:56;;;;;;;8.10;7.30;;;;;;;12.11;63.86;97340.63;5040308;28;20269;-69
2023/04/16 00:25:21;;;;;;;8.53;7.73;;;;;;;12.12;63.34;97352.78;5005456;28;20715;-71
2023/04/16 00:27:47;;;;;;;8.73;7.83;;;;;;;12.12;63.74;97352.78;5043297;28;20207;-72
2023/04/16 00:30:12;;;;;;;8.13;7.33;;;;;;;12.11;63.48;97348.50;5041152;28;20201;-70
2023/04/16 00:32:38;;;;;;;9.33;7.77;;;;;;;12.11;63.97;97342.44;5043335;28;20198;-69
2023/04/16 00:35:03;;;;;;;10.23;8.27;;;;;;;12.12;63.70;97347.53;5032780;28;20290;-71
2023/04/16 00:37:29;;;;;;;9.20;8.30;;;;;;;12.13;63.87;97346.53;5042533;28;20222;-70
2023/04/16 00:39:54;;;;;;;9.37;8.27;;;;;;;12.14;63.16;97350.00;5033432;28;20191;-69
2023/04/16 00:42:20;;;;;;;8.00;7.20;;;;;;;12.14;63.40;97355.25;5034415;28;20262;-70
2023/04/16 00:44:45;;;;;;;8.13;7.33;;;;;;;12.11;63.69;97355.56;5045312;28;20211;-70
2023/04/16 00:47:11;;;;;;;8.70;7.80;;;;;;;12.11;63.67;97348.50;5038571;28;20214;-71
2023/04/16 00:49:36;;;;;;;11.63;9.60;;;;;;;12.10;63.78;97351.31;5043550;28;20675;-71
2023/04/16 00:52:02;;;;;;;7.27;6.57;;;;;;;12.10;63.80;97352.09;5037055;28;20290;-69
2023/04/16 00:54:27;;;;;;;13.00;11.23;;;;;;;12.06;63.56;97348.16;5039766;28;20230;-70
2023/04/16 00:56:53;;;;;;;9.17;8.27;;;;;;;12.10;63.89;97349.47;5038633;28;20191;-71
2023/04/16 00:59:18;;;;;;;9.03;7.53;;;;;;;12.08;63.64;97348.00;5030943;28;20187;-70
2023/04/16 01:01:44;;;;;;;8.65;7.85;;;;;;;11.99;63.71;97352.41;5035851;28;20981;-69
2023/04/16 01:04:09;;;;;;;9.20;8.23;;;;;;;12.02;63.74;97351.28;5034448;28;20208;-70
2023/04/16 01:06:35;;;;;;;9.13;7.33;;;;;;;12.05;63.60;97351.78;5047947;28;20199;-70
2023/04/16 01:09:00;;;;;;;10.10;8.97;;;;;;;12.04;63.90;97358.00;5034518;28;20294;-69
2023/04/16 01:11:26;;;;;;;8.20;7.40;;;;;;;12.06;63.42;97353.44;5050814;28;20620;-70
2023/04/16 01:13:51;;;;;;;8.07;7.30;;;;;;;12.07;63.67;97356.84;5034237;28;20217;-72
2023/04/16 01:16:17;;;;;;;11.20;9.10;;;;;;;12.12;63.89;97357.22;5034705;28;20265;-69
2023/04/16 01:18:42;;;;;;;8.20;7.40;;;;;;;12.11;63.51;97361.63;5034570;28;20672;-69
2023/04/16 01:21:08;;;;;;;8.40;7.53;;;;;;;12.09;63.62;97363.63;5033468;28;20272;-70
2023/04/16 01:23:33;;;;;;;7.10;6.40;;;;;;;12.08;63.63;97358.50;5024047;28;20210;-70
2023/04/16 01:25:58;;;;;;;7.43;6.63;;;;;;;12.00;63.81;97359.28;5039480;28;20676;-68
2023/04/16 01:28:24;;;;;;;8.77;7.23;;;;;;;11.97;63.73;97360.41;5030055;28;21480;-70
2023/04/16 01:30:50;;;;;;;6.83;6.13;;;;;;;11.96;63.49;97363.22;5051019;28;20203;-70
2023/04/16 01:33:16;;;;;;;7.00;6.30;;;;;;;12.00;63.93;97367.19;5031292;28;20219;-70
2023/04/16 01:35:42;;;;;;;7.20;6.00;;;;;;;12.00;63.72;97363.75;5035390;28;20203;-69
2023/04/16 01:38:08;;;;;;;6.70;6.10;;;;;;;12.03;63.65;97366.88;5027707;28;20445;-70
2023/04/16 01:40:34;;;;;;;6.30;5.70;;;;;;;12.03;63.61;97363.44;5048181;28;20275;-70
2023/04/16 01:43:00;;;;;;;7.50;6.80;;;;;;;12.02;63.62;97364.41;5035778;28;20480;-67
2023/04/16 01:45:25;;;;;;;6.23;5.63;;;;;;;12.02;63.81;97370.47;5046704;28;20482;-71
2023/04/16 01:47:51;;;;;;;7.53;6.10;;;;;;;12.03;63.65;97369.50;5025013;28;20215;-72
2023/04/16 01:50:18;;;;;;;11.80;6.17;;;;;;;12.04;63.51;97360.63;5044786;28;20194;-69
2023/04/16 01:52:43;;;;;;;6.73;6.03;;;;;;;12.03;63.64;97371.31;5041974;28;20195;-71
2023/04/16 01:55:09;;;;;;;5.73;5.23;;;;;;;11.94;63.73;97365.97;5039898;28;20449;-72
2023/04/16 01:57:35;;;;;;;6.60;6.00;;;;;;;11.95;63.70;97359.75;5050404;28;20186;-72
2023/04/16 02:00:01;;;;;;;6.50;5.90;;;;;;;11.94;63.51;97367.78;5045301;28;20242;-69
2023/04/16 02:02:27;;;;;;;6.73;5.60;;;;;;;11.91;64.31;97366.28;5040871;28;20256;-71
2023/04/16 02:04:54;;;;;;;6.40;5.80;;;;;;;11.90;64.02;97372.53;5039380;28;20458;-72
2023/04/16 02:07:19;;;;;;;6.80;5.43;;;;;;;11.90;64.05;97363.81;5044835;28;20465;-71
2023/04/16 02:09:45;;;;;;;6.77;6.10;;;;;;;11.92;64.06;97367.13;5041413;28;20435;-69
2023/04/16 02:12:10;;;;;;;5.23;4.73;;;;;;;11.91;63.89;97365.47;5042553;28;20294;-72
2023/04/16 02:14:36;;;;;;;5.40;4.90;;;;;;;11.89;64.30;97365.63;5035887;28;20203;-70
2023/04/16 02:17:02;;;;;;;6.73;5.80;;;;;;;11.86;64.26;97367.72;5021573;28;20257;-68
2023/04/16 02:19:27;;;;;;;5.73;5.23;;;;;;;11.90;64.23;97366.44;5051193;28;20600;-71
2023/04/16 02:21:53;;;;;;;5.80;5.30;;;;;;;11.87;64.46;97372.84;5045971;28;20206;-71
2023/04/16 02:24:19;;;;;;;6.70;6.00;;;;;;;11.91;64.06;97366.28;5018638;28;20218;-72
2023/04/16 02:26:45;;;;;;;11.40;8.90;;;;;;;11.90;63.69;97374.31;5032205;28;21134;-72
2023/04/16 02:29:10;;;;;;;6.00;5.40;;;;;;;11.93;64.25;97379.28;5038047;28;20973;-71
2023/04/16 02:31:36;;;;;;;9.17;7.50;;;;;;;11.94;64.13;97380.91;5020254;28;20742;-71
2023/04/16 02:34:02;;;;;;;5.30;4.80;;;;;;;11.92;64.38;97375.81;5032065;28;20234;-68
2023/04/16 02:36:27;;;;;;;6.40;5.70;;;;;;;11.89;64.23;97375.31;5035956;28;20829;-70
2023/04/16 02:38:52;;;;;;;6.90;5.50;;;;;;;11.86;64.17;97372.97;5046554;28;20191;-69
2023/04/16 02:41:18;;;;;;;5.20;4.70;;;;;;;11.87;64.26;97369.38;5037267;28;20244;-71
2023/04/16 02:43:43;;;;;;;5.77;5.20;;;;;;;11.87;64.26;97374.63;5052917;28;20206;-73
2023/04/16 02:46:09;;;;;;;5.70;5.10;;;;;;;11.87;64.54;97377.25;5034384;28;20223;-70
2023/04/16 02:48:35;;;;;;;5.97;5.40;;;;;;;11.88;64.35;97376.28;5031921;28;20223;-71
2023/04/16 02:51:00;;;;;;;5.23;4.67;;;;;;;11.92;64.21;97373.19;5032887;28;20199;-70
2023/04/16 02:53:25;;;;;;;5.10;4.60;;;;;;;11.92;64.21;97378.44;5030129;28;20188;-71
2023/04/16 02:55:52;;;;;;;5.70;4.80;;;;;;;11.92;64.12;97375.81;5035671;28;20195;-71
2023/04/16 02:58:18;;;;;;;5.30;4.77;;;;;;;11.93;64.30;97381.91;5042440;28;20266;-72
2023/04/16 03:00:44;;;;;;;5.57;5.07;;;;;;;11.98;64.01;97380.47;5041400;28;20463;-71
2023/04/16 03:03:10;;;;;;;6.43;5.77;;;;;;;11.98;64.22;97383.09;5038939;28;20433;-70
2023/04/16 03:05:35;;;;;;;6.13;5.30;;;;;;;11.97;64.55;97385.88;5037008;28;20203;-70
2023/04/16 03:08:02;;;;;;;6.27;5.67;;;;;;;11.92;64.17;97383.69;5030612;28;20219;-70
2023/04/16 03:10:28;;;;;;;6.03;5.53;;;;;;;11.93;64.15;97381.91;5017616;28;20192;-69
2023/04/16 03:12:53;;;;;;;6.17;5.40;;;;;;;11.94;64.11;97373.84;5020991;28;20438;-72
2023/04/16 03:15:19;;;;;;;6.20;5.60;;;;;;;11.95;64.17;97387.81;5043509;28;20212;-70
2023/04/16 03:17:44;;;;;;;6.00;5.40;;;;;;;11.88;64.21;97386.78;5039127;28;20187;-70
2023/04/16 03:20:10;;;;;;;6.23;5.63;;;;;;;11.83;64.21;97388.09;5024112;28;20191;-70
2023/04/16 03:22:35;;;;;;;6.80;6.03;;;;;;;11.81;64.49;97386.59;5037531;28;20761;-70
2023/04/16 03:25:01;;;;;;;6.83;6.13;;;;;;;11.78;63.90;97387.72;5034982;28;20306;-68
2023/04/16 03:27:26;;;;;;;5.93;5.33;;;;;;;11.79;64.46;97389.38;5036355;28;20291;-72
2023/04/16 03:29:51;;;;;;;8.20;6.60;;;;;;;11.77;64.22;97385.25;5036355;28;20279;-72
2023/04/16 03:32:17;;;;;;;8.63;6.90;;;;;;;11.77;64.35;97390.50;5031782;28;20286;-71
2023/04/16 03:34:43;;;;;;;8.60;7.60;;;;;;;11.79;64.58;97386.75;5042303;28;20210;-70
2023/04/16 03:37:10;;;;;;;7.50;6.50;;;;;;;11.79;64.28;97394.63;5040671;28;20270;-71
2023/04/16 03:39:36;;;;;;;7.23;6.50;;;;;;;11.81;64.52;97395.31;5041891;28;20305;-70
2023/04/16 03:42:02;;;;;;;8.20;7.07;;;;;;;11.77;64.11;97393.94;5023615;28;20533;-68
2023/04/16 03:44:28;;;;;;;8.43;7.03;;;;;;;11.77;64.38;97401.81;5006141;28;20580;-69
2023/04/16 03:46:53;;;;;;;8.43;7.17;;;;;;;11.74;64.13;97407.38;5031241;28;20442;-70
2023/04/16 03:49:19;;;;;;;8.03;7.23;;;;;;;11.78;64.28;97408.72;5035251;28;20419;-71
2023/04/16 03:51:44;;;;;;;7.17;6.40;;;;;;;11.77;64.37;97406.28;5038796;28;20202;-69
2023/04/16 03:54:10;;;;;;;6.73;6.13;;;;;;;11.78;64.70;97411.34;5043155;28;20219;-71
2023/04/16 03:56:35;;;;;;;6.70;5.80;;;;;;;11.79;64.65;97401.66;5040445;28;20198;-70
2023/04/16 03:59:01;;;;;;;8.97;6.70;;;;;;;11.77;64.32;97407.09;5039938;28;20196;-70
2023/04/16 04:01:26;;;;;;;8.90;7.10;;;;;;;11.74;64.27;97411.81;5043461;28;20271;-69
2023/04/16 04:03:52;;;;;;;7.07;6.13;;;;;;;11.76;64.55;97410.69;5041241;28;20852;-71
2023/04/16 04:06:17;;;;;;;7.00;6.00;;;;;;;11.75;64.63;97405.59;5050663;28;20265;-71
2023/04/16 04:08:43;;;;;;;8.30;6.97;;;;;;;11.73;64.13;97416.25;5040408;28;20210;-70
2023/04/16 04:11:08;;;;;;;11.07;7.47;;;;;;;11.68;64.44;97408.00;5047273;28;20198;-71
2023/04/16 04:13:34;;;;;;;8.20;7.20;;;;;;;11.67;64.51;97411.63;5042570;28;20273;-70
2023/04/16 04:15:59;;;;;;;9.10;7.07;;;;;;;11.68;64.75;97419.31;5028624;28;20238;-70
2023/04/16 04:18:25;;;;;;;9.83;7.37;;;;;;;11.67;64.77;97417.69;5035822;28;20240;-71
2023/04/16 04:20:51;;;;;;;7.20;6.30;;;;;;;11.65;64.95;97418.81;5042070;28;20202;-70
2023/04/16 04:23:16;;;;;;;6.80;5.90;;;;;;;11.70;64.69;97421.81;5039811;28;20198;-70
2023/04/16 04:25:41;;;;;;;9.27;7.00;;;;;;;11.68;64.62;97429.03;5020137;28;20450;-72
2023/04/16 04:28:07;;;;;;;7.57;6.67;;;;;;;11.66;64.48;97421.28;5037559;28;20293;-70
2023/04/16 04:30:34;;;;;;;11.23;7.97;;;;;;;11.62;64.49;97424.38;5046111;28;20187;-70
2023/04/16 04:32:59;;;;;;;8.03;7.10;;;;;;;11.64;64.83;97428.50;5046761;28;20195;-70
2023/04/16 04:35:25;;;;;;;7.13;6.40;;;;;;;11.66;64.67;97430.97;5043293;28;20481;-71
2023/04/16 04:37:50;;;;;;;8.83;6.83;;;;;;;11.66;65.04;97433.59;5040273;28;20194;-70
2023/04/16 04:40:16;;;;;;;7.20;6.50;;;;;;;11.67;64.88;97430.81;5046208;28;20194;-70
2023/04/16 04:42:41;;;;;;;8.60;7.40;;;;;;;11.66;65.03;97437.03;5050953;28;20198;-69
2023/04/16 04:45:08;;;;;;;8.87;7.30;;;;;;;11.63;64.84;97442.63;5039525;28;20827;-69
2023/04/16 04:47:33;;;;;;;7.87;6.90;;;;;;;11.69;64.76;97449.06;5045832;28;20272;-70
2023/04/16 04:49:59;;;;;;;8.40;7.20;;;;;;;11.69;65.04;97435.91;5041357;28;20442;-69
2023/04/16 04:52:24;;;;;;;9.40;7.17;;;;;;;11.70;64.68;97439.34;5025741;28;20191;-71
2023/04/16 04:54:51;;;;;;;10.27;7.50;;;;;;;11.65;64.47;97443.28;5045758;28;20264;-71
2023/04/16 04:57:17;;;;;;;8.10;6.90;;;;;;;11.63;64.74;97447.03;5039519;28;20241;-71
2023/04/16 04:59:42;;;;;;;8.90;6.90;;;;;;;11.62;64.93;97453.25;5032305;28;20433;-71
2023/04/16 05:02:07;;;;;;;7.70;6.40;;;;;;;11.67;65.04;97458.88;5056243;28;20651;-71
2023/04/16 05:04:33;;;;;;;8.70;7.07;;;;;;;11.66;64.91;97463.28;5047969;28;20289;-70
2023/04/16 05:06:58;;;;;;;9.10;6.80;;;;;;;11.62;64.61;97463.75;5045558;28;20278;-69
2023/04/16 05:09:24;;;;;;;6.33;5.67;;;;;;;11.52;64.74;97464.66;5038493;28;20656;-72
2023/04/16 05:11:49;;;;;;;8.60;7.53;;;;;;;11.50;65.00;97469.25;5039828;28;20331;-69
2023/04/16 05:14:15;;;;;;;10.23;7.50;;;;;;;11.49;65.24;97466.78;5022092;28;20211;-69
2023/04/16 05:16:40;;;;;;;12.50;7.00;;;;;;;11.46;65.56;97475.78;5038004;28;20206;-69
2023/04/16 05:19:06;;;;;;;8.07;6.50;;;;;;;11.45;65.36;97471.50;5046150;28;20179;-71
2023/04/16 05:21:31;;;;;;;8.47;6.90;;;;;;;11.46;65.35;97477.56;5045795;28;20909;-70
2023/04/16 05:23:57;;;;;;;7.17;6.47;;;;;;;11.45;65.69;97482.00;5037176;28;20219;-71
2023/04/16 05:26:23;;;;;;;8.30;7.40;;;;;;;11.44;65.45;97484.75;5036755;28;20183;-72
2023/04/16 05:28:48;;;;;;;8.53;7.33;;;;;;;11.44;65.54;97484.75;5032995;28;20465;-70
2023/04/16 05:31:14;;;;;;;11.30;8.07;;;;;;;11.43;65.84;97483.97;5035640;28;20210;-71
2023/04/16 05:33:39;;;;;;;11.20;8.50;;;;;;;11.42;65.76;97487.56;5046159;28;20636;-72
2023/04/16 05:36:05;;;;;;;14.33;10.10;;;;;;;11.41;65.87;97493.78;5050056;28;20891;-70
2023/04/16 05:38:30;;;;;;;12.53;10.33;;;;;;;11.40;66.15;97505.25;5046627;28;20227;-71
2023/04/16 05:40:56;;;;;;;14.07;11.10;;;;;;;11.39;66.15;97500.97;5045176;28;20207;-70
2023/04/16 05:43:22;;;;;;;16.47;11.80;;;;;;;11.42;65.98;97505.91;5039714;28;20293;-69
2023/04/16 05:45:47;;;;;;;15.07;10.97;;;;;;;11.45;66.06;97508.25;5039739;28;20525;-70
2023/04/16 05:48:13;;;;;;;17.23;12.70;;;;;;;11.45;66.07;97513.50;5035965;28;20688;-74
2023/04/16 05:50:38;;;;;;;16.20;12.53;;;;;;;11.44;66.30;97503.13;5034960;28;20282;-70
2023/04/16 05:53:05;;;;;;;19.43;12.97;;;;;;;11.44;66.42;97514.47;5036735;28;20670;-70
2023/04/16 05:55:31;;;;;;;19.30;13.90;;;;;;;11.43;66.66;97514.59;5034081;28;20787;-71
2023/04/16 05:57:56;;;;;;;20.57;14.90;;;;;;;11.45;66.61;97513.50;5035838;28;20513;-70
2023/04/16 06:00:22;;;;;;;19.30;14.33;;;;;;;11.46;66.15;97515.16;5050489;28;20933;-72
2023/04/16 06:02:47;;;;;;;18.90;14.90;;;;;;;11.45;66.79;97520.53;5040180;28;20192;-71
2023/04/16 06:05:13;;;;;;;21.90;15.83;;;;;;;11.46;66.43;97524.81;5050869;28;20212;-71
2023/04/16 06:07:38;;;;;;;21.50;15.90;;;;;;;11.42;66.67;97520.81;5037522;28;20642;-71
2023/04/16 06:10:04;;;;;;;23.30;16.43;;;;;;;11.39;66.48;97518.53;5040590;28;20724;-70
2023/04/16 06:12:30;;;;;;;23.70;16.40;;;;;;;11.41;66.69;97516.56;5036997;28;20191;-70
2023/04/16 06:14:55;;;;;;;24.37;16.03;;;;;;;11.43;66.81;97525.94;5033694;28;20549;-71
2023/04/16 06:17:21;;;;;;;21.93;16.03;;;;;;;11.47;66.87;97531.72;5034004;28;20187;-69
2023/04/16 06:19:46;;;;;;;22.50;16.03;;;;;;;11.45;66.57;97523.16;5041768;28;20195;-72
2023/04/16 06:22:12;;;;;;;22.30;16.67;;;;;;;11.39;66.55;97521.97;5046678;28;20250;-70
2023/04/16 06:24:37;;;;;;;22.43;16.10;;;;;;;11.36;66.60;97520.47;5027957;28;20238;-70
2023/04/16 06:27:03;;;;;;;20.40;16.07;;;;;;;11.38;66.70;97530.81;5044702;28;20221;-70
2023/04/16 06:29:28;;;;;;;21.43;15.20;;;;;;;11.30;66.89;97522.88;5037900;28;20253;-70
2023/04/16 06:31:54;;;;;;;25.10;17.57;;;;;;;11.33;67.04;97531.25;5049110;28;20197;-70
2023/04/16 06:34:19;;;;;;;25.97;18.00;;;;;;;11.34;66.75;97532.91;5031120;28;20206;-71
2023/04/16 06:36:45;;;;;;;22.60;17.10;;;;;;;11.34;66.92;97532.91;5042692;28;20195;-70
2023/04/16 06:39:10;;;;;;;25.60;18.40;;;;;;;11.33;67.35;97531.25;5039527;28;20215;-71
2023/04/16 06:41:36;;;;;;;25.17;17.20;;;;;;;11.38;66.92;97536.06;5042263;28;20208;-70
2023/04/16 06:44:01;;;;;;;27.87;20.23;;;;;;;11.41;67.21;97537.53;5042321;28;20216;-69
2023/04/16 06:46:27;;;;;;;26.87;18.63;;;;;;;11.38;66.87;97538.69;5043740;28;20784;-71
2023/04/16 06:48:52;;;;;;;25.90;17.87;;;;;;;11.37;66.84;97531.78;5035163;28;20751;-71
2023/04/16 06:51:18;;;;;;;22.90;17.20;;;;;;;11.40;66.67;97533.31;5040791;28;20198;-72
2023/04/16 06:53:43;;;;;;;25.60;17.87;;;;;;;11.41;67.20;97537.53;5038530;28;20191;-71
2023/04/16 06:56:09;;;;;;;23.97;16.90;;;;;;;11.38;66.99;97541.31;5028894;28;20200;-72
2023/04/16 06:58:35;;;;;;;24.03;17.40;;;;;;;11.39;67.20;97545.56;5030288;28;20192;-70
2023/04/16 07:01:01;;;;;;;27.70;18.07;;;;;;;11.41;67.16;97546.25;5038715;28;20367;-70
2023/04/16 07:03:27;;;;;;;25.23;18.33;;;;;;;11.42;66.82;97545.28;5017461;28;20550;-73
2023/04/16 07:05:52;;;;;;;34.60;22.57;;;;;;;11.42;66.92;97547.06;5032802;28;20514;-70
2023/04/16 07:08:18;;;;;;;24.47;19.10;;;;;;;11.40;66.86;97552.47;5032112;28;20315;-70
2023/04/16 07:10:44;;;;;;;31.83;23.93;;;;;;;11.43;67.00;97546.94;5035633;28;20294;-72
2023/04/16 07:13:09;;;;;;;27.40;19.53;;;;;;;11.46;66.85;97551.06;5034499;28;20250;-69
2023/04/16 07:15:35;;;;;;;25.00;18.03;;;;;;;11.46;66.97;97551.91;5035517;28;20457;-69
2023/04/16 07:18:00;;;;;;;27.00;18.83;;;;;;;11.49;66.86;97554.19;5031003;28;20916;-71
2023/04/16 07:20:26;;;;;;;25.50;17.30;;;;;;;11.53;66.66;97552.94;5029577;28;20819;-73
2023/04/16 07:22:51;;;;;;;27.50;18.40;;;;;;;11.52;66.44;97556.53;5033829;28;20186;-71
2023/04/16 07:25:17;;;;;;;24.60;17.10;;;;;;;11.50;66.30;97555.84;5033093;28;20215;-70
2023/04/16 07:27:42;;;;;;;26.27;18.03;;;;;;;11.53;66.36;97563.44;5029567;28;20299;-70
2023/04/16 07:30:08;;;;;;;26.17;18.70;;;;;;;11.50;66.21;97561.09;5030262;28;20203;-69
2023/04/16 07:32:34;;;;;;;26.87;17.50;;;;;;;11.55;66.47;97575.59;5034315;28;20229;-71
2023/04/16 07:34:59;;;;;;;25.87;18.47;;;;;;;11.58;66.56;97564.81;5035647;28;20211;-72
2023/04/16 07:37:25;;;;;;;25.30;18.47;;;;;;;11.66;66.44;97567.50;5031756;28;20484;-71
2023/04/16 07:39:51;;;;;;;26.73;18.00;;;;;;;11.64;66.12;97570.28;5036443;28;20278;-70
2023/04/16 07:42:17;;;;;;;22.80;17.23;;;;;;;11.61;66.12;97574.97;5041184;28;20195;-72
2023/04/16 07:44:42;;;;;;;27.37;17.77;;;;;;;11.62;66.36;97577.47;5043126;28;20477;-71
2023/04/16 07:47:08;;;;;;;31.67;18.90;;;;;;;11.68;66.05;97581.28;5048344;28;20194;-69
2023/04/16 07:49:33;;;;;;;21.37;15.80;;;;;;;11.66;66.33;97581.44;5030618;28;20724;-70
2023/04/16 07:51:59;;;;;;;23.57;16.80;;;;;;;11.68;66.19;97581.28;5042980;28;20214;-70
2023/04/16 07:54:24;;;;;;;22.50;16.67;;;;;;;11.64;65.75;97579.94;5031138;28;20217;-71
2023/04/16 07:56:50;;;;;;;23.17;16.87;;;;;;;11.65;65.69;97581.59;5031384;28;20754;-71
2023/04/16 07:59:15;;;;;;;22.13;15.97;;;;;;;11.67;65.73;97588.34;5034994;28;20560;-74
2023/04/16 08:01:41;;;;;;;22.73;16.20;;;;;;;11.68;65.30;97587.34;5032936;28;20286;-71
2023/04/16 08:04:06;;;;;;;21.70;16.40;;;;;;;11.68;65.50;97591.81;5032199;28;20211;-72
2023/04/16 08:06:31;;;;;;;21.53;16.90;;;;;;;11.67;65.94;97595.41;5030540;28;20198;-72
2023/04/16 08:08:57;;;;;;;24.23;16.63;;;;;;;11.70;66.03;97602.97;5031418;28;20217;-70
2023/04/16 08:11:22;;;;;;;21.97;16.23;;;;;;;11.72;65.57;97597.56;5033460;28;20317;-71
2023/04/16 08:13:49;;;;;;;21.80;15.93;;;;;;;11.73;65.69;97605.28;5034841;28;20273;-71
2023/04/16 08:16:14;;;;;;;20.53;15.27;;;;;;;11.78;65.37;97605.66;5029158;28;20187;-71
2023/04/16 08:18:40;;;;;;;22.10;15.97;;;;;;;11.80;65.71;97608.97;5038322;28;20429;-71
2023/04/16 08:21:05;;;;;;;19.27;13.90;;;;;;;11.79;65.93;97609.09;5047978;28;20691;-71
2023/04/16 08:23:31;;;;;;;22.13;15.43;;;;;;;11.80;65.54;97606.34;5042031;28;20664;-71
2023/04/16 08:25:57;;;;;;;22.67;15.97;;;;;;;11.79;65.38;97609.09;5041677;28;20572;-71
2023/04/16 08:28:22;;;;;;;19.20;15.03;;;;;;;11.82;65.19;97616.69;5032200;28;20545;-72
2023/04/16 08:30:47;;;;;;;19.60;14.90;;;;;;;11.80;65.13;97616.84;5038411;28;20191;-71
2023/04/16 08:33:13;;;;;;;19.13;15.30;;;;;;;11.80;65.55;97622.09;5040126;28;20699;-72
2023/04/16 08:35:39;;;;;;;19.80;14.83;;;;;;;11.81;65.06;97618.50;5032733;28;20603;-70
2023/04/16 08:38:06;;;;;;;19.93;15.50;;;;;;;11.80;65.26;97627.34;5040270;28;20225;-70
2023/04/16 08:40:34;;;;;;;20.00;15.07;;;;;;;11.83;64.99;97639.34;5054458;28;20440;-71
2023/04/16 08:43:01;;;;;;;25.53;15.30;;;;;;;11.82;64.97;97632.44;5052069;28;20495;-72
2023/04/16 08:45:27;;;;;;;18.23;14.63;;;;;;;11.82;65.00;97641.16;5047790;28;20452;-71
2023/04/16 08:47:52;;;;;;;21.27;15.07;;;;;;;11.82;64.79;97635.91;5036492;28;20967;-71
2023/04/16 08:50:23;;;;;;;20.63;16.17;;;;;;;11.80;64.94;97643.13;5057856;28;20630;-70
2023/04/16 08:52:57;;;;;;;20.13;15.20;;;;;;;11.81;65.02;97642.16;5033364;28;20627;-72
2023/04/16 08:55:28;;;;;;;19.10;14.43;;;;;;;11.85;64.79;97637.41;5041259;28;20803;-71
2023/04/16 08:57:56;;;;;;;19.60;15.23;;;;;;;11.84;65.18;97639.19;5049257;28;20524;-71
2023/04/16 09:00:22;;;;;;;21.53;14.77;;;;;;;11.84;65.06;97643.63;5049238;28;20449;-70
2023/04/16 09:02:49;;;;;;;23.80;15.87;;;;;;;11.88;65.14;97642.38;5045880;28;20446;-70
2023/04/16 09:05:16;;;;;;;21.83;14.80;;;;;;;11.90;65.00;97653.56;5052749;28;20264;-71
2023/04/16 09:07:43;;;;;;;18.40;13.73;;;;;;;11.92;65.03;97648.16;5058633;28;20460;-70
2023/04/16 09:10:09;;;;;;;19.63;14.53;;;;;;;11.99;65.07;97651.84;5048001;28;20890;-71
2023/04/16 09:12:35;;;;;;;16.37;12.93;;;;;;;11.97;64.99;97648.53;5029906;28;20445;-71
2023/04/16 09:15:02;;;;;;;18.43;13.13;;;;;;;12.01;64.78;97654.34;5048165;28;20441;-70
2023/04/16 09:17:27;;;;;;;18.70;13.27;;;;;;;12.08;64.92;97653.59;5033550;28;20309;-72
2023/04/16 09:19:53;;;;;;;18.33;13.97;;;;;;;12.09;64.91;97657.03;5036949;28;20874;-70
2023/04/16 09:22:19;;;;;;;14.97;12.53;;;;;;;12.13;64.68;97656.56;5034849;28;20196;-71
2023/04/16 09:24:44;;;;;;;17.00;11.97;;;;;;;12.14;64.62;97660.03;5026469;28;20580;-73
2023/04/16 09:27:11;;;;;;;17.60;12.67;;;;;;;12.17;64.54;97658.91;5040805;28;20202;-71
2023/04/16 09:29:38;;;;;;;17.20;13.30;;;;;;;12.09;64.56;97652.63;5031014;28;20560;-72
2023/04/16 09:32:06;;;;;;;17.90;13.33;;;;;;;12.03;64.28;97653.19;5033403;28;20833;-70
2023/04/16 09:34:32;;;;;;;19.20;13.90;;;;;;;12.08;64.98;97661.47;5042043;28;20453;-70
2023/04/16 09:37:16;;;;;;;17.67;13.63;;;;;;;12.09;64.68;97657.88;5033456;28;20496;-71
2023/04/16 09:39:43;;;;;;;19.77;14.37;;;;;;;12.14;64.94;97666.09;5041878;28;20524;-71
2023/04/16 09:42:09;;;;;;;18.20;14.20;;;;;;;12.22;65.01;97661.91;5029752;28;20461;-72
2023/04/16 09:44:36;;;;;;;20.10;13.90;;;;;;;12.23;64.69;97660.91;5049135;28;20941;-70
2023/04/16 09:47:08;;;;;;;18.00;13.33;;;;;;;12.27;65.25;97664.91;5020930;28;20514;-70
2023/04/16 09:49:36;;;;;;;20.40;13.77;;;;;;;12.30;64.59;97669.84;5043991;28;20450;-71
2023/04/16 09:52:02;;;;;;;18.80;13.63;;;;;;;12.34;64.96;97673.84;5047650;28;20433;-70
2023/04/16 09:54:27;;;;;;;18.10;13.37;;;;;;;12.36;65.06;97677.13;5051013;28;20442;-72
2023/04/16 09:56:55;;;;;;;21.13;13.20;;;;;;;12.35;64.75;97678.09;5052044;28;20750;-71
2023/04/16 09:59:22;;;;;;;21.67;14.60;;;;;;;12.35;64.25;97678.09;5054881;28;20201;-70
2023/04/16 10:01:48;;;;;;;26.13;14.03;;;;;;;12.35;64.13;97682.53;5054007;28;21024;-72
2023/04/16 10:04:14;;;;;;;18.63;13.33;;;;;;;12.39;64.31;97679.44;5049313;28;20449;-71
2023/04/16 10:06:39;;;;;;;20.90;14.07;;;;;;;12.42;64.32;97683.56;5047237;28;20434;-73
2023/04/16 10:09:06;;;;;;;18.47;13.90;;;;;;;12.42;64.51;97688.81;5040948;28;20487;-71
2023/04/16 10:11:32;;;;;;;17.90;13.60;;;;;;;12.36;63.99;97679.75;5051762;28;20190;-72
2023/04/16 10:13:57;;;;;;;19.40;14.33;;;;;;;12.38;63.64;97683.06;5039852;28;20517;-71
2023/04/16 10:16:23;;;;;;;18.37;13.60;;;;;;;12.38;64.08;97687.50;5025627;28;20191;-72
2023/04/16 10:18:48;;;;;;;20.23;14.50;;;;;;;12.39;64.07;97689.97;5039884;28;20180;-72
2023/04/16 10:21:15;;;;;;;23.70;15.87;;;;;;;12.28;64.06;97693.66;5035805;28;20198;-70
2023/04/16 10:23:41;;;;;;;21.80;14.00;;;;;;;12.31;64.17;97691.69;5037880;28;20194;-71
2023/04/16 10:26:07;;;;;;;24.17;13.30;;;;;;;12.33;64.35;97701.09;5045267;28;20432;-70
2023/04/16 10:28:36;;;;;;;21.47;14.80;;;;;;;12.36;64.17;97707.84;5038786;28;20516;-73
2023/04/16 10:31:07;;;;;;;21.13;14.57;;;;;;;12.27;64.33;97702.53;5044251;28;20913;-71
2023/04/16 10:33:34;;;;;;;22.77;15.37;;;;;;;12.29;64.23;97699.75;5036631;28;20587;-71
2023/04/16 10:36:10;;;;;;;19.77;14.53;;;;;;;12.35;64.05;97704.38;5031501;28;21045;-72
2023/04/16 10:38:52;;;;;;;21.80;14.77;;;;;;;12.36;64.66;97706.03;5048864;28;20422;-71
2023/04/16 10:41:21;;;;;;;20.50;14.50;;;;;;;12.40;64.34;97696.06;5029294;28;20440;-71
2023/04/16 10:43:47;;;;;;;17.87;13.10;;;;;;;12.43;64.39;97701.84;5059355;28;20436;-72
2023/04/16 10:46:30;;;;;;;22.03;14.43;;;;;;;12.48;64.32;97697.91;5029995;28;20808;-70
2023/04/16 10:48:59;;;;;;;18.00;13.17;;;;;;;12.47;64.24;97694.47;5029127;28;20544;-70
2023/04/16 10:51:30;;;;;;;21.40;15.17;;;;;;;12.46;64.37;97699.88;5046412;28;20422;-70
2023/04/16 10:54:07;;;;;;;18.20;13.13;;;;;;;12.47;64.55;97691.84;5039878;28;20514;-73
2023/04/16 10:56:34;;;;;;;20.40;14.67;;;;;;;12.46;64.11;97692.00;5048272;28;20433;-73
2023/04/16 10:58:59;;;;;;;20.20;13.90;;;;;;;12.46;64.39;97692.81;5045711;28;20433;-75
2023/04/16 11:01:31;;;;;;;17.00;12.50;;;;;;;12.42;63.99;97697.56;5050328;28;20856;-69
2023/04/16 11:04:01;;;;;;;18.90;13.10;;;;;;;12.46;64.10;97694.63;5035058;28;20294;-71
2023/04/16 11:06:29;;;;;;;17.77;12.70;;;;;;;12.53;64.22;97698.28;5043476;28;21013;-72
2023/04/16 11:08:55;;;;;;;15.67;11.83;;;;;;;12.56;63.81;97701.44;5038231;28;20465;-72
2023/04/16 11:11:21;;;;;;;16.80;11.40;;;;;;;12.57;63.69;97702.28;5047796;28;20426;-70
2023/04/16 11:13:46;;;;;;;14.27;10.73;;;;;;;12.57;63.99;97707.53;5048415;28;20284;-70
2023/04/16 11:16:13;;;;;;;13.33;9.80;;;;;;;12.55;63.51;97704.22;5047094;28;20529;-72
2023/04/16 11:18:39;;;;;;;13.17;10.00;;;;;;;12.56;63.49;97700.63;5025016;28;20192;-73